Time;durP1;ratioP1;P1;durP2;ratioP2;P2;SDS_P1;SDS_P2;PMS_P1;PMS_P2;Temp;Humidity;BMP_temperature;BMP_pressure;BME280_temperature;BME280_humidity;BME280_pressure;Samples;Min_cycle;Max_cycle;Signal;HPM_P1;HPM_P2
2023/08/14 00:01:54;;;;;;;4.43;1.65;;;15.00;99.90;;;;;;4897912;28;20052;-93
2023/08/14 00:04:20;;;;;;;9.93;2.03;;;15.00;99.90;;;;;;4980484;28;20060;-94
2023/08/14 00:06:45;;;;;;;7.07;1.85;;;15.00;99.90;;;;;;4902115;29;20025;-95
2023/08/14 00:09:11;;;;;;;12.52;1.80;;;14.90;99.90;;;;;;4904133;28;20119;-92
2023/08/14 00:11:37;;;;;;;10.65;2.15;;;14.90;99.90;;;;;;4898288;28;20028;-93
2023/08/14 00:14:03;;;;;;;5.93;1.88;;;14.90;99.90;;;;;;4897625;28;20056;-93
2023/08/14 00:16:29;;;;;;;6.32;1.75;;;15.00;99.90;;;;;;4897691;29;20117;-94
2023/08/14 00:18:54;;;;;;;5.43;1.98;;;14.90;99.90;;;;;;4898003;29;20113;-93
2023/08/14 00:21:20;;;;;;;4.57;1.90;;;14.90;99.90;;;;;;4985289;28;20131;-92
2023/08/14 00:23:45;;;;;;;6.50;2.10;;;14.80;99.90;;;;;;4902152;28;20036;-92
2023/08/14 00:26:12;;;;;;;8.23;1.92;;;14.90;99.90;;;;;;4902602;28;20396;-92
2023/08/14 00:28:38;;;;;;;7.68;2.15;;;14.90;99.90;;;;;;4898832;28;20048;-90
2023/08/14 00:31:03;;;;;;;6.82;2.22;;;14.80;99.90;;;;;;4897160;28;20028;-91
2023/08/14 00:33:29;;;;;;;11.57;2.60;;;14.80;99.90;;;;;;4896765;29;20025;-90
2023/08/14 00:35:55;;;;;;;8.27;2.58;;;14.80;99.90;;;;;;4896609;28;20036;-91
2023/08/14 00:38:20;;;;;;;7.00;2.15;;;14.70;99.90;;;;;;4979454;28;20072;-91
2023/08/14 00:40:46;;;;;;;6.18;2.03;;;14.70;99.90;;;;;;4896536;28;20127;-91
2023/08/14 00:43:12;;;;;;;6.30;2.20;;;14.70;99.90;;;;;;4896931;29;20091;-91
2023/08/14 00:45:38;;;;;;;6.35;1.65;;;14.70;99.90;;;;;;4896825;28;20119;-90
2023/08/14 00:48:05;;;;;;;6.45;2.30;;;14.70;99.90;;;;;;4896592;28;20033;-90
2023/08/14 00:50:31;;;;;;;12.18;3.20;;;14.70;99.90;;;;;;4896469;28;20032;-90
2023/08/14 00:53:00;;;;;;;8.23;2.83;;;14.70;99.90;;;;;;4896559;28;20039;-90
2023/08/14 00:55:26;;;;;;;7.35;2.03;;;14.70;99.90;;;;;;4978765;28;20029;-90
2023/08/14 00:57:53;;;;;;;3.78;2.15;;;14.60;99.90;;;;;;4899159;28;20061;-90
2023/08/14 01:00:19;;;;;;;7.60;2.00;;;14.60;99.90;;;;;;4898920;29;20025;-91
2023/08/14 01:02:46;;;;;;;9.82;2.97;;;14.60;99.90;;;;;;4897103;28;20102;-89
2023/08/14 01:05:12;;;;;;;12.32;3.00;;;14.60;99.90;;;;;;4899124;28;20032;-89
2023/08/14 01:07:39;;;;;;;11.05;2.92;;;14.50;99.90;;;;;;4900182;28;20096;-90
2023/08/14 01:10:07;;;;;;;14.48;3.03;;;14.60;99.90;;;;;;4998119;28;20040;-91
2023/08/14 01:12:45;;;;;;;8.75;2.97;;;14.60;99.90;;;;;;4916788;28;20101;-90
2023/08/14 01:15:36;;;;;;;13.27;3.65;;;14.60;99.90;;;;;;4931062;28;20032;-91
2023/08/14 01:18:03;;;;;;;11.82;2.80;;;14.60;99.90;;;;;;4931099;28;20037;-90
2023/08/14 01:20:32;;;;;;;9.88;3.30;;;14.60;99.90;;;;;;4930793;28;20024;-89
2023/08/14 01:23:03;;;;;;;9.23;2.67;;;14.60;99.90;;;;;;4930511;28;20044;-90
2023/08/14 01:25:31;;;;;;;8.80;3.58;;;14.60;99.90;;;;;;4930500;28;20060;-90
2023/08/14 01:27:59;;;;;;;9.40;3.40;;;14.60;99.90;;;;;;4930367;28;20056;-90
2023/08/14 01:30:24;;;;;;;13.25;3.72;;;14.60;99.90;;;;;;4930811;28;20035;-90
2023/08/14 01:32:51;;;;;;;11.52;3.70;;;14.50;99.90;;;;;;4931120;29;20028;-90
2023/08/14 01:35:19;;;;;;;9.60;3.67;;;14.50;99.90;;;;;;4930546;28;20024;-91
2023/08/14 01:38:14;;;;;;;12.65;4.00;;;14.50;99.90;;;;;;4934291;28;20055;-90
2023/08/14 01:40:45;;;;;;;13.38;4.32;;;14.50;99.90;;;;;;4930569;28;20123;-91
2023/08/14 01:43:17;;;;;;;14.40;4.78;;;14.50;99.90;;;;;;4930354;29;20072;-90
2023/08/14 01:45:43;;;;;;;13.18;4.93;;;14.50;99.90;;;;;;4930133;29;20046;-91
2023/08/14 01:48:11;;;;;;;10.35;4.40;;;14.50;99.90;;;;;;4930521;28;20471;-90
2023/08/14 01:50:38;;;;;;;12.80;4.40;;;14.50;99.90;;;;;;4929912;28;20047;-90
2023/08/14 01:53:04;;;;;;;14.20;5.05;;;14.50;99.90;;;;;;4930493;28;20029;-91
2023/08/14 01:55:30;;;;;;;13.85;5.35;;;14.50;99.90;;;;;;4930517;28;20028;-89
2023/08/14 01:57:55;;;;;;;10.55;4.88;;;14.50;99.90;;;;;;4930500;28;20040;-90
2023/08/14 02:00:21;;;;;;;13.38;5.28;;;14.50;99.90;;;;;;4930177;28;20024;-93
2023/08/14 02:02:47;;;;;;;14.77;5.63;;;14.50;99.90;;;;;;4929231;28;20130;-91
2023/08/14 02:05:13;;;;;;;14.50;5.05;;;14.60;99.90;;;;;;4930190;28;20028;-91
2023/08/14 02:07:38;;;;;;;12.80;5.70;;;14.50;99.90;;;;;;4929987;28;20031;-91
2023/08/14 02:10:05;;;;;;;9.15;4.70;;;14.50;99.90;;;;;;4930117;28;20028;-91
2023/08/14 02:12:30;;;;;;;9.50;5.05;;;14.50;99.90;;;;;;4929914;28;20035;-91
2023/08/14 02:14:57;;;;;;;14.43;5.65;;;14.50;99.90;;;;;;4929772;29;20028;-90
2023/08/14 02:17:23;;;;;;;11.20;4.60;;;14.50;99.90;;;;;;4930191;28;20024;-91
2023/08/14 02:19:48;;;;;;;10.02;4.95;;;14.50;99.90;;;;;;4929994;28;20044;-90
2023/08/14 02:22:14;;;;;;;6.85;4.20;;;14.50;99.90;;;;;;4930549;28;20110;-90
2023/08/14 02:24:40;;;;;;;9.38;4.50;;;14.50;99.90;;;;;;4937094;28;20518;-92
2023/08/14 02:27:05;;;;;;;10.02;4.13;;;14.50;99.90;;;;;;4936321;28;20120;-91
2023/08/14 02:29:31;;;;;;;8.18;3.97;;;14.50;99.90;;;;;;4935128;28;20032;-91
2023/08/14 02:31:57;;;;;;;12.73;4.07;;;14.50;99.90;;;;;;4933107;28;20055;-90
2023/08/14 02:34:34;;;;;;;11.00;4.10;;;14.50;99.90;;;;;;4931334;28;20047;-92
2023/08/14 02:36:59;;;;;;;8.30;3.78;;;14.50;99.90;;;;;;4930238;28;20074;-90
2023/08/14 02:39:25;;;;;;;11.93;3.92;;;14.50;99.90;;;;;;4929883;28;20024;-91
2023/08/14 02:41:51;;;;;;;13.50;4.28;;;14.50;99.90;;;;;;4929805;28;20024;-90
2023/08/14 02:44:16;;;;;;;10.20;3.47;;;14.50;99.90;;;;;;4930015;28;20066;-90
2023/08/14 02:46:42;;;;;;;9.02;4.15;;;14.50;99.90;;;;;;4929678;28;20024;-92
2023/08/14 02:49:08;;;;;;;11.13;3.90;;;14.50;99.90;;;;;;4930135;28;20032;-90
2023/08/14 02:51:33;;;;;;;11.23;3.33;;;14.50;99.90;;;;;;4930111;29;20028;-91
2023/08/14 02:53:59;;;;;;;15.60;4.32;;;14.50;99.90;;;;;;4929866;28;20472;-91
2023/08/14 02:56:26;;;;;;;8.73;3.05;;;14.60;99.90;;;;;;4929271;28;20047;-91
2023/08/14 02:58:51;;;;;;;11.13;3.70;;;14.60;99.90;;;;;;4929391;28;20025;-90
2023/08/14 03:01:17;;;;;;;8.40;3.05;;;14.50;99.90;;;;;;4929702;28;20039;-90
2023/08/14 03:03:42;;;;;;;9.20;4.00;;;14.60;99.90;;;;;;4932097;28;20040;-90
2023/08/14 03:06:08;;;;;;;8.93;3.90;;;14.60;99.90;;;;;;4929832;28;20024;-90
2023/08/14 03:08:34;;;;;;;8.60;3.22;;;14.60;99.90;;;;;;4929071;28;20024;-91
2023/08/14 03:10:59;;;;;;;14.65;3.70;;;14.60;99.90;;;;;;4928654;29;20024;-90
2023/08/14 03:13:25;;;;;;;10.82;3.60;;;14.50;99.90;;;;;;4929629;28;20040;-91
2023/08/14 03:15:51;;;;;;;8.13;3.55;;;14.50;99.90;;;;;;4929159;28;20029;-91
2023/08/14 03:18:16;;;;;;;6.95;3.85;;;14.50;99.90;;;;;;4929098;28;20035;-90
2023/08/14 03:20:42;;;;;;;11.38;4.70;;;14.50;99.90;;;;;;4929501;28;20028;-91
2023/08/14 03:23:07;;;;;;;15.55;5.53;;;14.50;99.90;;;;;;4929190;28;20407;-91
2023/08/14 03:25:33;;;;;;;12.48;6.00;;;14.50;99.90;;;;;;4928850;28;20024;-91
2023/08/14 03:27:59;;;;;;;9.43;5.97;;;14.50;99.90;;;;;;4929064;28;20146;-91
2023/08/14 03:30:24;;;;;;;9.38;6.55;;;14.50;99.90;;;;;;4929180;28;20020;-91
2023/08/14 03:32:50;;;;;;;9.43;6.18;;;14.50;99.90;;;;;;4929086;28;20476;-92
2023/08/14 03:35:16;;;;;;;10.80;5.40;;;14.50;99.90;;;;;;4914354;28;20026;-91
2023/08/14 03:37:41;;;;;;;7.32;4.50;;;14.50;99.90;;;;;;4928676;28;20028;-91
2023/08/14 03:40:08;;;;;;;7.07;4.00;;;14.50;99.90;;;;;;4913976;28;20028;-91
2023/08/14 03:42:33;;;;;;;5.53;3.90;;;14.50;99.90;;;;;;4928632;28;20123;-90
2023/08/14 03:44:59;;;;;;;7.75;4.20;;;14.50;99.90;;;;;;4928689;28;20118;-91
2023/08/14 03:47:25;;;;;;;6.00;3.53;;;14.50;99.90;;;;;;4928729;28;20491;-91
2023/08/14 03:49:50;;;;;;;6.00;3.05;;;14.50;99.90;;;;;;4928787;28;20032;-91
2023/08/14 03:52:16;;;;;;;11.77;3.25;;;14.50;99.90;;;;;;4928914;28;20120;-92
2023/08/14 03:54:41;;;;;;;4.30;2.47;;;14.50;99.90;;;;;;4929172;28;20024;-91
2023/08/14 03:57:07;;;;;;;5.60;2.80;;;14.50;99.90;;;;;;4928765;28;20028;-92
2023/08/14 03:59:33;;;;;;;4.78;2.20;;;14.50;99.90;;;;;;4928965;28;20377;-90
2023/08/14 04:01:58;;;;;;;4.95;2.15;;;14.50;99.90;;;;;;4928339;28;20034;-92
2023/08/14 04:04:24;;;;;;;3.88;1.63;;;14.50;99.90;;;;;;4928473;28;20074;-90
2023/08/14 04:06:50;;;;;;;3.30;1.90;;;14.50;99.90;;;;;;4913542;29;20372;-92
2023/08/14 04:09:15;;;;;;;7.10;2.20;;;14.40;99.90;;;;;;4928302;28;20064;-90
2023/08/14 04:11:41;;;;;;;3.05;1.48;;;14.50;99.90;;;;;;4928130;28;20695;-92
2023/08/14 04:14:07;;;;;;;5.60;2.03;;;14.40;99.90;;;;;;4928551;28;20039;-90
2023/08/14 04:16:42;;;;;;;5.53;2.08;;;14.40;99.90;;;;;;4928186;28;20031;-91
2023/08/14 04:19:14;;;;;;;5.65;1.80;;;14.40;99.90;;;;;;4928645;28;20024;-90
2023/08/14 04:21:40;;;;;;;5.72;1.80;;;14.40;99.90;;;;;;4928388;29;20028;-91
2023/08/14 04:24:07;;;;;;;7.75;2.78;;;14.40;99.90;;;;;;4928142;28;20040;-91
2023/08/14 04:26:33;;;;;;;3.13;1.88;;;14.40;99.90;;;;;;4929417;28;20050;-90
2023/08/14 04:28:59;;;;;;;8.82;2.47;;;14.40;99.90;;;;;;4931658;28;20109;-91
2023/08/14 04:31:25;;;;;;;8.40;2.45;;;14.30;99.90;;;;;;4939314;29;20051;-92
2023/08/14 04:33:51;;;;;;;6.70;2.70;;;14.30;99.90;;;;;;4932066;28;20031;-91
2023/08/14 04:36:16;;;;;;;7.60;2.95;;;14.30;99.90;;;;;;4931853;28;20063;-90
2023/08/14 04:38:42;;;;;;;9.75;3.03;;;14.30;99.90;;;;;;4923244;28;20500;-91
2023/08/14 04:41:08;;;;;;;14.88;3.65;;;14.30;99.90;;;;;;4897637;29;20032;-91
2023/08/14 04:43:33;;;;;;;7.03;3.42;;;14.30;99.90;;;;;;4897634;29;20080;-91
2023/08/14 04:46:08;;;;;;;11.38;4.00;;;14.30;99.90;;;;;;4898046;29;20031;-92
2023/08/14 04:48:33;;;;;;;12.90;3.72;;;14.30;99.90;;;;;;4912284;29;20033;-92
2023/08/14 04:50:59;;;;;;;13.50;3.50;;;14.30;99.90;;;;;;4896190;29;20071;-91
2023/08/14 04:53:24;;;;;;;8.25;3.25;;;14.30;99.90;;;;;;4896579;29;20041;-92
2023/08/14 04:55:51;;;;;;;12.25;4.05;;;14.30;99.90;;;;;;4912576;28;20028;-91
2023/08/14 04:58:16;;;;;;;11.40;3.75;;;14.30;99.90;;;;;;4896165;28;20032;-91
2023/08/14 05:00:42;;;;;;;8.93;3.40;;;14.30;99.90;;;;;;4896599;29;20021;-91
2023/08/14 05:03:08;;;;;;;13.38;4.13;;;14.30;99.90;;;;;;4896401;29;20041;-91
2023/08/14 05:05:33;;;;;;;8.25;3.65;;;14.30;99.90;;;;;;4896272;29;20048;-91
2023/08/14 05:07:59;;;;;;;11.73;3.50;;;14.30;99.90;;;;;;4896463;29;20114;-91
2023/08/14 05:10:25;;;;;;;8.80;3.15;;;14.30;99.90;;;;;;4896211;29;20025;-91
2023/08/14 05:12:50;;;;;;;7.38;3.20;;;14.30;99.90;;;;;;4911952;28;20052;-90
2023/08/14 05:15:16;;;;;;;14.55;4.10;;;14.30;99.90;;;;;;4896615;28;20024;-91
2023/08/14 05:17:42;;;;;;;8.15;3.72;;;14.30;99.90;;;;;;4896038;29;20056;-90
2023/08/14 05:20:09;;;;;;;7.43;3.33;;;14.30;99.90;;;;;;4912446;28;20037;-91
2023/08/14 05:22:34;;;;;;;11.32;3.63;;;14.30;99.90;;;;;;4911965;29;20392;-91
2023/08/14 05:25:00;;;;;;;14.65;3.95;;;14.30;99.90;;;;;;4896442;29;20036;-90
2023/08/14 05:27:26;;;;;;;11.73;3.40;;;14.30;99.90;;;;;;4895830;28;20051;-90
2023/08/14 05:29:51;;;;;;;11.65;4.68;;;14.30;99.90;;;;;;4898073;29;20036;-91
2023/08/14 05:32:17;;;;;;;8.95;3.35;;;14.40;99.90;;;;;;4900994;29;20033;-90
2023/08/14 05:34:43;;;;;;;8.15;3.80;;;14.40;99.90;;;;;;4901415;29;20067;-91
2023/08/14 05:37:08;;;;;;;9.93;3.88;;;14.40;99.90;;;;;;4916272;28;20084;-90
2023/08/14 05:39:34;;;;;;;11.02;4.07;;;14.40;99.90;;;;;;4899489;29;20098;-90
2023/08/14 05:42:00;;;;;;;6.60;3.67;;;14.40;99.90;;;;;;4896528;29;20047;-90
2023/08/14 05:44:25;;;;;;;13.02;3.95;;;14.40;99.90;;;;;;4896424;29;20068;-91
2023/08/14 05:46:51;;;;;;;8.98;3.92;;;14.50;99.90;;;;;;4897173;29;20415;-90
2023/08/14 05:49:16;;;;;;;8.73;4.05;;;14.50;99.90;;;;;;4896088;29;20048;-91
2023/08/14 05:51:43;;;;;;;8.18;4.05;;;14.50;99.90;;;;;;4895705;29;20031;-92
2023/08/14 05:54:08;;;;;;;12.90;4.50;;;14.50;99.90;;;;;;4911925;28;20024;-91
2023/08/14 05:56:34;;;;;;;9.57;4.20;;;14.60;99.90;;;;;;4897469;28;20566;-91
2023/08/14 05:59:00;;;;;;;14.20;5.03;;;14.60;99.90;;;;;;4901668;29;20064;-91
2023/08/14 06:01:26;;;;;;;8.32;4.53;;;14.60;99.90;;;;;;4896088;29;20033;-90
2023/08/14 06:03:54;;;;;;;8.80;4.97;;;14.60;99.90;;;;;;4895711;28;20040;-92
2023/08/14 06:06:20;;;;;;;13.20;5.10;;;14.60;99.90;;;;;;4895568;28;20021;-92
2023/08/14 06:08:45;;;;;;;8.48;5.15;;;14.70;99.90;;;;;;4911948;28;20087;-92
2023/08/14 06:11:11;;;;;;;12.52;5.45;;;14.70;99.90;;;;;;4895983;29;20116;-92
2023/08/14 06:13:36;;;;;;;8.32;5.05;;;14.70;99.90;;;;;;4895758;29;20052;-91
2023/08/14 06:16:02;;;;;;;8.80;5.38;;;14.70;99.90;;;;;;4895652;29;20099;-89
2023/08/14 06:18:28;;;;;;;8.65;4.70;;;14.70;99.90;;;;;;4895670;28;20082;-89
2023/08/14 06:20:54;;;;;;;8.38;4.72;;;14.70;99.90;;;;;;4895177;28;20092;-90
2023/08/14 06:23:20;;;;;;;7.50;4.47;;;14.70;99.90;;;;;;4910944;28;20512;-90
2023/08/14 06:25:45;;;;;;;7.25;4.13;;;14.70;99.90;;;;;;4895396;29;20031;-91
2023/08/14 06:28:11;;;;;;;6.78;3.42;;;14.70;99.90;;;;;;4893650;29;20080;-91
2023/08/14 06:30:37;;;;;;;6.53;3.50;;;14.70;99.90;;;;;;4895362;28;20498;-91
2023/08/14 06:33:03;;;;;;;10.90;3.53;;;14.80;99.90;;;;;;4901627;28;20419;-91
2023/08/14 06:35:30;;;;;;;5.28;3.25;;;14.80;99.90;;;;;;4929195;28;20534;-90
2023/08/14 06:37:55;;;;;;;6.50;2.90;;;14.80;99.90;;;;;;4929611;28;20036;-90
2023/08/14 06:40:21;;;;;;;6.43;4.28;;;14.80;99.90;;;;;;4929810;28;20028;-92
2023/08/14 06:42:47;;;;;;;6.95;3.13;;;14.80;99.90;;;;;;4929248;28;20036;-93
2023/08/14 06:45:12;;;;;;;9.07;4.10;;;14.80;99.90;;;;;;4929464;28;20471;-89
2023/08/14 06:47:46;;;;;;;8.55;4.30;;;14.80;99.90;;;;;;4996481;28;20064;-90
2023/08/14 06:50:13;;;;;;;8.18;3.78;;;14.90;99.90;;;;;;4928904;28;20021;-90
2023/08/14 06:52:39;;;;;;;4.88;3.05;;;14.90;99.90;;;;;;4929206;28;20067;-88
2023/08/14 06:55:05;;;;;;;4.22;3.55;;;15.00;99.90;;;;;;4929590;28;20488;-91
2023/08/14 06:57:31;;;;;;;5.88;3.35;;;15.00;99.90;;;;;;4929746;28;20098;-91
2023/08/14 06:59:56;;;;;;;7.50;3.13;;;15.10;99.90;;;;;;4929226;28;20032;-91
2023/08/14 07:02:22;;;;;;;6.05;2.72;;;15.10;99.90;;;;;;4929188;28;20135;-91
2023/08/14 07:04:48;;;;;;;3.35;2.72;;;15.20;99.90;;;;;;4929725;28;20035;-91
2023/08/14 07:07:14;;;;;;;4.15;2.47;;;15.20;99.90;;;;;;4929290;28;20020;-92
2023/08/14 07:09:39;;;;;;;2.78;2.40;;;15.30;99.90;;;;;;4929551;28;20542;-91
2023/08/14 07:12:05;;;;;;;5.38;2.85;;;15.30;99.90;;;;;;4929659;28;20039;-92
2023/08/14 07:14:31;;;;;;;4.88;2.85;;;15.30;99.90;;;;;;4929254;28;20094;-92
2023/08/14 07:16:57;;;;;;;3.17;2.65;;;15.30;99.90;;;;;;4929535;28;20028;-89
2023/08/14 07:19:23;;;;;;;7.00;2.60;;;15.40;99.90;;;;;;4923070;28;20369;-90
2023/08/14 07:21:48;;;;;;;6.68;2.88;;;15.40;99.90;;;;;;4889237;29;20033;-90
2023/08/14 07:24:14;;;;;;;5.88;2.17;;;15.40;99.90;;;;;;4976086;28;20055;-90
2023/08/14 07:26:40;;;;;;;5.68;1.60;;;15.40;99.90;;;;;;4895144;28;20033;-91
2023/08/14 07:29:07;;;;;;;4.00;2.33;;;15.50;99.90;;;;;;4894717;29;20037;-92
2023/08/14 07:31:32;;;;;;;4.13;1.63;;;15.60;99.90;;;;;;4910309;29;20029;-92
2023/08/14 07:33:58;;;;;;;2.92;2.03;;;15.60;99.90;;;;;;4910104;29;20029;-91
2023/08/14 07:36:27;;;;;;;2.88;1.85;;;15.70;99.90;;;;;;4894189;29;20021;-91
2023/08/14 07:38:53;;;;;;;1.73;1.33;;;15.70;99.90;;;;;;4909870;29;20067;-91
2023/08/14 07:41:18;;;;;;;2.45;1.63;;;15.80;99.90;;;;;;4976415;28;20044;-92
2023/08/14 07:43:44;;;;;;;2.40;2.15;;;15.80;99.90;;;;;;4894371;29;20037;-93
2023/08/14 07:46:24;;;;;;;;;;;;;;;;;;;;;
2023/08/14 07:48:51;;;;;;;2.60;1.90;;;15.90;99.90;;;;;;4892942;29;20040;-92
2023/08/14 07:51:16;;;;;;;2.15;1.60;;;15.90;99.90;;;;;;4913388;29;20047;-91
2023/08/14 07:53:42;;;;;;;2.03;1.55;;;15.90;99.90;;;;;;4894779;28;20089;-92
2023/08/14 07:56:08;;;;;;;2.50;1.50;;;16.00;99.90;;;;;;4910024;29;20041;-91
2023/08/14 07:58:33;;;;;;;1.08;0.93;;;16.00;99.90;;;;;;4975492;28;20032;-92
2023/08/14 08:00:59;;;;;;;1.65;1.20;;;16.00;99.90;;;;;;4907520;29;20047;-92
2023/08/14 08:03:25;;;;;;;2.90;1.00;;;16.00;99.90;;;;;;4913309;29;20055;-91
2023/08/14 08:05:51;;;;;;;3.78;1.00;;;16.00;99.90;;;;;;4913426;29;20017;-93
2023/08/14 08:08:17;;;;;;;1.13;0.80;;;16.00;99.90;;;;;;4913565;29;20029;-93
2023/08/14 08:10:42;;;;;;;2.08;1.13;;;16.00;99.90;;;;;;4913645;29;20028;-94
2023/08/14 08:13:44;;;;;;;;;;;;;;;;;;;;;
2023/08/14 08:16:10;;;;;;;2.35;1.33;;;16.10;99.90;;;;;;4900437;28;20036;-93
2023/08/14 08:18:36;;;;;;;4.28;1.10;;;16.00;99.90;;;;;;4920169;28;20052;-91
2023/08/14 08:21:02;;;;;;;1.27;0.90;;;16.00;99.90;;;;;;4916637;28;20029;-91
2023/08/14 08:23:27;;;;;;;2.47;1.25;;;16.00;99.90;;;;;;4914054;29;20052;-91
2023/08/14 08:25:53;;;;;;;1.20;1.00;;;16.00;99.90;;;;;;4912705;29;20392;-93
2023/08/14 08:28:19;;;;;;;2.75;1.38;;;16.00;99.90;;;;;;4912983;28;20080;-93
2023/08/14 08:30:54;;;;;;;1.75;1.20;;;16.00;99.90;;;;;;4909125;29;20480;-91
2023/08/14 08:33:20;;;;;;;3.25;1.00;;;16.00;99.90;;;;;;4897371;29;20035;-92
2023/08/14 08:35:46;;;;;;;1.27;0.95;;;16.00;99.90;;;;;;4896855;29;20492;-91
2023/08/14 08:38:11;;;;;;;1.42;0.98;;;16.00;99.90;;;;;;4913008;29;20170;-91
2023/08/14 08:40:41;;;;;;;1.48;1.10;;;16.00;99.90;;;;;;4914610;29;20084;-91
2023/08/14 08:43:08;;;;;;;2.13;1.25;;;16.00;99.90;;;;;;4981181;28;20028;-91
2023/08/14 08:45:36;;;;;;;2.20;1.10;;;16.00;99.90;;;;;;4915506;28;20032;-91
2023/08/14 08:48:05;;;;;;;3.20;1.02;;;16.10;99.90;;;;;;4915518;29;20045;-92
2023/08/14 08:50:31;;;;;;;2.10;1.00;;;16.00;99.90;;;;;;4916985;29;20024;-91
2023/08/14 08:52:57;;;;;;;2.35;1.00;;;16.00;99.90;;;;;;4898413;29;20563;-91
2023/08/14 08:55:23;;;;;;;1.88;0.98;;;16.00;99.90;;;;;;4911831;29;20024;-91
2023/08/14 08:57:49;;;;;;;1.60;1.08;;;16.10;99.90;;;;;;4912991;29;20032;-92
2023/08/14 09:00:16;;;;;;;1.38;1.17;;;16.10;99.90;;;;;;4913258;28;20063;-92
2023/08/14 09:02:41;;;;;;;2.83;1.40;;;16.10;99.90;;;;;;4912859;29;20135;-92
2023/08/14 09:05:07;;;;;;;0.68;0.60;;;16.20;99.90;;;;;;4896778;29;20175;-92
2023/08/14 09:07:33;;;;;;;1.48;0.85;;;16.20;99.90;;;;;;4907717;29;20032;-92
2023/08/14 09:10:00;;;;;;;3.15;0.90;;;16.20;99.90;;;;;;4894298;28;20029;-92
2023/08/14 09:12:26;;;;;;;1.05;0.93;;;16.30;99.90;;;;;;4910685;29;20036;-92
2023/08/14 09:15:09;;;;;;;1.98;1.17;;;16.30;99.90;;;;;;4895826;29;20043;-92
2023/08/14 09:17:35;;;;;;;2.28;1.20;;;16.40;99.90;;;;;;4977151;28;20310;-92
2023/08/14 09:20:02;;;;;;;3.33;1.20;;;16.40;99.90;;;;;;4911905;29;20028;-94
2023/08/14 09:22:29;;;;;;;2.45;1.38;;;16.40;99.90;;;;;;4911757;29;20043;-92
2023/08/14 09:24:56;;;;;;;3.05;1.58;;;16.40;99.90;;;;;;4911530;29;20056;-93
2023/08/14 09:27:23;;;;;;;2.63;1.63;;;16.40;99.90;;;;;;4912011;29;20073;-92
2023/08/14 09:29:53;;;;;;;3.08;1.40;;;16.40;99.90;;;;;;4911344;29;20033;-92
2023/08/14 09:32:23;;;;;;;5.30;1.70;;;16.40;99.90;;;;;;4913931;28;20063;-93
2023/08/14 09:35:00;;;;;;;4.28;1.55;;;16.40;99.90;;;;;;4896188;29;20040;-92
2023/08/14 09:37:27;;;;;;;3.67;1.45;;;16.50;99.90;;;;;;4895863;29;20035;-93
2023/08/14 09:40:16;;;;;;;2.25;1.60;;;16.50;99.90;;;;;;4897161;29;20031;-92
2023/08/14 09:42:45;;;;;;;2.83;1.65;;;16.50;99.90;;;;;;4910377;29;20328;-93
2023/08/14 09:45:18;;;;;;;2.08;1.50;;;16.50;99.90;;;;;;4908469;28;20033;-92
2023/08/14 09:47:46;;;;;;;2.83;1.40;;;16.50;99.90;;;;;;4908569;28;20029;-92
2023/08/14 09:50:13;;;;;;;1.50;1.10;;;16.60;99.90;;;;;;4910457;29;20128;-92
2023/08/14 09:52:48;;;;;;;2.15;1.42;;;16.60;99.90;;;;;;4911931;28;20028;-93
2023/08/14 09:55:14;;;;;;;3.75;1.58;;;16.70;99.90;;;;;;4912055;28;20029;-93
2023/08/14 09:57:40;;;;;;;1.48;1.38;;;16.70;99.90;;;;;;4912080;28;20550;-92
2023/08/14 10:00:06;;;;;;;3.00;1.40;;;16.70;99.90;;;;;;4912440;28;20043;-92
2023/08/14 10:02:34;;;;;;;1.98;1.80;;;16.60;99.90;;;;;;4978009;28;20039;-92
2023/08/14 10:05:04;;;;;;;2.25;2.00;;;16.60;99.90;;;;;;4910973;29;20025;-91
2023/08/14 10:07:32;;;;;;;2.80;2.17;;;16.60;99.90;;;;;;4911135;29;20029;-92
2023/08/14 10:10:02;;;;;;;3.28;2.97;;;16.70;99.90;;;;;;4896198;28;20036;-90
2023/08/14 10:12:33;;;;;;;3.78;2.67;;;16.70;99.90;;;;;;4892159;28;20140;-91
2023/08/14 10:15:08;;;;;;;4.82;2.75;;;16.70;99.90;;;;;;4911138;28;20025;-91
2023/08/14 10:17:45;;;;;;;2.30;2.10;;;16.80;99.90;;;;;;4895624;28;20083;-91
2023/08/14 10:20:15;;;;;;;1.60;1.50;;;16.80;99.90;;;;;;4892767;29;20031;-91
2023/08/14 10:22:41;;;;;;;2.22;1.60;;;16.90;99.90;;;;;;4908061;28;20108;-92
2023/08/14 10:25:08;;;;;;;1.73;1.60;;;16.90;99.90;;;;;;4909975;28;20033;-90
2023/08/14 10:27:34;;;;;;;2.63;1.55;;;16.90;99.90;;;;;;4904821;28;20063;-91
2023/08/14 10:30:00;;;;;;;1.50;1.40;;;17.00;99.90;;;;;;4895904;28;20439;-91
2023/08/14 10:32:27;;;;;;;2.00;1.30;;;17.00;99.90;;;;;;4913253;28;20032;-91
2023/08/14 10:34:55;;;;;;;1.20;1.10;;;17.00;99.90;;;;;;4915496;28;20025;-93
2023/08/14 10:37:28;;;;;;;4.85;1.20;;;17.00;99.90;;;;;;4905967;29;20472;-92
2023/08/14 10:40:13;;;;;;;1.10;1.05;;;17.00;99.90;;;;;;4910686;28;20044;-93
2023/08/14 10:42:43;;;;;;;2.03;1.10;;;17.00;99.90;;;;;;4894772;28;20025;-93
2023/08/14 10:45:09;;;;;;;2.03;1.10;;;17.00;99.90;;;;;;4897103;28;20456;-92
2023/08/14 10:47:38;;;;;;;1.52;1.10;;;17.00;99.90;;;;;;4895396;29;20119;-92
2023/08/14 10:50:21;;;;;;;2.25;1.10;;;17.00;99.90;;;;;;4910456;29;20500;-93
2023/08/14 10:52:52;;;;;;;2.05;1.27;;;17.00;99.90;;;;;;4911004;28;20043;-92
2023/08/14 10:55:41;;;;;;;1.92;1.30;;;17.00;99.90;;;;;;4910060;28;20036;-93
2023/08/14 10:58:36;;;;;;;3.55;1.40;;;17.00;99.90;;;;;;4893711;29;20488;-93
2023/08/14 11:01:10;;;;;;;3.97;1.40;;;17.00;99.90;;;;;;4901771;28;20115;-93
2023/08/14 11:03:54;;;;;;;2.75;1.40;;;17.00;99.90;;;;;;4894598;29;20044;-93
2023/08/14 11:06:27;;;;;;;3.25;1.73;;;17.00;99.90;;;;;;4909666;28;20024;-92
2023/08/14 11:09:04;;;;;;;3.67;1.25;;;17.00;99.90;;;;;;4894366;29;20029;-92
2023/08/14 11:11:29;;;;;;;4.60;1.60;;;17.00;99.90;;;;;;4892262;28;20036;-92
2023/08/14 11:13:56;;;;;;;5.28;1.70;;;17.00;99.90;;;;;;4910461;29;20036;-91
2023/08/14 11:16:22;;;;;;;2.88;1.67;;;17.00;99.90;;;;;;4910271;29;20087;-92
2023/08/14 11:18:48;;;;;;;4.32;1.90;;;17.00;99.90;;;;;;4909710;28;20028;-91
2023/08/14 11:21:14;;;;;;;4.30;2.05;;;17.00;99.90;;;;;;4911006;29;20029;-92
2023/08/14 11:23:39;;;;;;;5.80;1.67;;;17.00;99.90;;;;;;4910440;29;20404;-93
2023/08/14 11:26:08;;;;;;;4.70;1.80;;;17.00;99.90;;;;;;4911005;29;20037;-92
2023/08/14 11:28:34;;;;;;;4.22;1.70;;;17.00;99.90;;;;;;4910304;29;20058;-92
2023/08/14 11:30:59;;;;;;;3.28;1.98;;;17.10;99.90;;;;;;4909876;29;20029;-92
2023/08/14 11:33:25;;;;;;;4.90;1.90;;;17.10;99.90;;;;;;4910528;29;20031;-91
2023/08/14 11:35:54;;;;;;;5.97;1.67;;;17.20;99.90;;;;;;4913616;28;20051;-90
2023/08/14 11:38:23;;;;;;;4.70;1.67;;;17.10;99.90;;;;;;4916511;29;20025;-91
2023/08/14 11:40:49;;;;;;;5.38;1.70;;;17.10;99.90;;;;;;4916608;29;20439;-92
2023/08/14 11:43:17;;;;;;;5.28;2.22;;;17.10;99.90;;;;;;4909212;28;20037;-90
2023/08/14 11:45:45;;;;;;;3.33;1.58;;;17.10;99.90;;;;;;4916112;29;20051;-90
2023/08/14 11:48:11;;;;;;;6.13;2.33;;;17.10;99.90;;;;;;4899871;29;20039;-90
2023/08/14 11:50:37;;;;;;;3.13;1.63;;;17.20;99.90;;;;;;4917128;29;20115;-91
2023/08/14 11:53:03;;;;;;;5.55;1.80;;;17.20;99.90;;;;;;4918266;28;20488;-92
2023/08/14 11:55:29;;;;;;;5.00;1.73;;;17.30;99.90;;;;;;4918914;28;20044;-91
2023/08/14 11:57:59;;;;;;;2.50;1.30;;;17.30;99.90;;;;;;4916938;29;20484;-89
2023/08/14 12:00:25;;;;;;;3.38;1.40;;;17.30;99.90;;;;;;4903933;29;20036;-90
2023/08/14 12:02:53;;;;;;;3.70;2.30;;;17.30;99.90;;;;;;4907325;29;20045;-87
2023/08/14 12:05:20;;;;;;;1.42;1.00;;;17.30;99.90;;;;;;4888058;29;20025;-90
2023/08/14 12:07:46;;;;;;;2.25;1.25;;;17.40;99.90;;;;;;4981633;28;20037;-89
2023/08/14 12:10:14;;;;;;;5.38;2.15;;;17.40;99.90;;;;;;4900032;29;20028;-89
2023/08/14 12:12:40;;;;;;;3.95;1.45;;;17.40;99.90;;;;;;4899814;29;20052;-89
2023/08/14 12:15:06;;;;;;;3.97;1.13;;;17.40;99.90;;;;;;4900486;29;20060;-91
2023/08/14 12:17:33;;;;;;;1.30;1.00;;;17.40;99.90;;;;;;4982902;28;20028;-91
2023/08/14 12:20:03;;;;;;;1.60;1.30;;;17.40;99.90;;;;;;4915780;28;20115;-91
2023/08/14 12:22:31;;;;;;;;;;;17.40;99.90;;;;;;4913197;28;20061;-92
2023/08/14 12:24:57;;;;;;;3.45;1.50;;;17.40;99.90;;;;;;4897347;28;20487;-90
2023/08/14 12:27:28;;;;;;;3.00;1.42;;;17.40;99.90;;;;;;4897130;29;20057;-92
2023/08/14 12:29:55;;;;;;;7.53;1.95;;;17.30;99.90;;;;;;4897219;28;20548;-90
2023/08/14 12:32:23;;;;;;;5.57;2.08;;;17.40;99.90;;;;;;4911561;28;20027;-92
2023/08/14 12:34:49;;;;;;;3.65;2.20;;;17.40;99.90;;;;;;4916330;29;20024;-90
2023/08/14 12:37:16;;;;;;;3.80;1.92;;;17.30;99.90;;;;;;4913697;28;20033;-92
2023/08/14 12:39:44;;;;;;;7.60;2.30;;;17.30;99.90;;;;;;4898245;29;20117;-90
2023/08/14 12:42:11;;;;;;;5.93;2.00;;;17.30;99.90;;;;;;4906074;29;20121;-90
2023/08/14 12:44:37;;;;;;;5.85;2.17;;;17.30;99.90;;;;;;4913256;29;20037;-92
2023/08/14 12:47:03;;;;;;;4.97;2.60;;;17.30;99.90;;;;;;4904999;28;20041;-92
2023/08/14 12:49:29;;;;;;;7.07;2.50;;;17.30;99.90;;;;;;4897712;29;20052;-92